createdAt,value
2019-02-21T12:37:57.663Z,4.65
2019-02-21T12:51:22.522Z,2.50
2019-02-21T12:53:52.139Z,2.55
2019-02-21T12:56:22.064Z,2.40
2019-02-21T12:58:51.664Z,2.27
2019-02-21T13:01:21.258Z,2.08
2019-02-21T13:03:51.015Z,2.50
2019-02-21T13:06:20.691Z,2.52
2019-02-21T13:08:50.696Z,2.27
2019-02-21T13:11:20.407Z,3.20
2019-02-21T13:13:49.916Z,2.77
2019-02-21T13:16:19.554Z,2.52
2019-02-21T13:18:49.124Z,2.85
2019-02-21T13:21:18.638Z,3.17
2019-02-21T13:23:48.233Z,3.33
2019-02-21T13:26:17.861Z,2.95
2019-02-21T13:28:47.453Z,3.45
2019-02-21T13:31:17.061Z,2.72
2019-02-21T13:33:46.677Z,2.37
2019-02-21T13:36:16.471Z,3.67
2019-02-21T13:38:46.089Z,3.05
2019-02-21T13:41:15.598Z,3.10
2019-02-21T13:43:45.104Z,2.87
2019-02-21T13:46:14.697Z,2.77
2019-02-21T13:48:44.207Z,3.15
2019-02-21T13:51:13.910Z,2.70
2019-02-21T13:53:43.854Z,2.50
2019-02-21T13:58:44.369Z,2.30
2019-02-21T14:01:14.582Z,2.62
2019-02-21T14:03:44.723Z,2.62
2019-02-21T14:06:14.430Z,3.08
2019-02-21T14:08:46.600Z,2.15
2019-02-21T14:11:17.993Z,2.15
2019-02-21T14:13:49.698Z,2.80
2019-02-21T14:18:51.991Z,3.10
2019-02-21T14:21:23.535Z,2.12
2019-02-21T14:26:25.920Z,2.60
2019-02-21T14:28:57.441Z,2.92
2019-02-21T14:31:29.658Z,2.67
2019-02-21T14:34:03.142Z,2.52
2019-02-21T14:36:38.376Z,2.85
2019-02-21T14:39:14.225Z,2.67
2019-02-21T14:41:45.784Z,3.20
2019-02-21T14:44:17.089Z,3.42
2019-02-21T14:46:50.191Z,3.37
2019-02-21T14:49:21.275Z,4.65
2019-02-21T14:54:23.240Z,3.62
2019-02-21T14:56:55.216Z,4.33
2019-02-21T14:59:27.572Z,3.80
2019-02-21T15:01:59.380Z,3.40
2019-02-21T15:04:30.579Z,2.92
2019-02-21T15:09:49.363Z,3.33
2019-02-21T15:12:23.524Z,2.70
2019-02-21T15:14:58.045Z,3.85
2019-02-21T15:17:30.252Z,4.42
2019-02-21T15:20:01.906Z,3.52
2019-02-21T15:22:33.064Z,4.28
2019-02-21T15:25:05.882Z,3.50
2019-02-21T15:27:36.974Z,4.60
2019-02-21T15:30:11.806Z,3.67
2019-02-21T15:32:44.924Z,3.55
2019-02-21T15:35:16.382Z,3.33
2019-02-21T15:37:52.743Z,4.37
2019-02-21T15:40:24.405Z,5.78
2019-02-21T15:42:57.347Z,3.87
2019-02-21T15:45:29.931Z,3.62
2019-02-21T15:48:01.011Z,3.65
2019-02-21T15:50:33.443Z,3.65
2019-02-21T15:53:05.196Z,3.67
2019-02-21T15:55:36.953Z,4.30
2019-02-21T15:58:08.509Z,3.95
2019-02-21T16:00:39.959Z,4.12
2019-02-21T16:03:11.594Z,5.53
2019-02-21T16:05:44.393Z,4.62
2019-02-21T16:08:15.641Z,11.22
2019-02-21T16:13:17.756Z,4.75
2019-02-21T16:15:51.938Z,4.45
2019-02-21T16:20:58.218Z,4.60
2019-02-21T16:23:29.362Z,4.50
2019-02-21T16:26:00.640Z,6.92
2019-02-21T16:31:06.162Z,3.77
2019-02-21T16:33:37.508Z,4.42
2019-02-21T16:36:09.272Z,4.83
2019-02-21T16:38:40.618Z,5.78
2019-02-21T16:41:12.280Z,4.20
2019-02-21T16:43:44.340Z,5.12
2019-02-21T16:46:15.468Z,7.40
2019-02-21T16:48:47.242Z,8.50
2019-02-21T16:53:52.188Z,8.73
2019-02-21T16:56:26.578Z,6.05
2019-02-21T16:58:58.158Z,7.72
2019-02-21T17:01:30.948Z,5.42
2019-02-21T17:04:03.520Z,5.50
2019-02-21T17:06:35.479Z,5.05
2019-02-21T17:09:06.928Z,6.12
2019-02-21T17:11:39.299Z,6.85
2019-02-21T17:14:10.540Z,5.83
2019-02-21T17:16:44.476Z,5.83
2019-02-21T17:19:16.122Z,6.10
2019-02-21T17:24:17.885Z,4.87
2019-02-21T17:26:49.434Z,6.67
2019-02-21T17:29:21.704Z,6.85
2019-02-21T17:31:53.575Z,5.33
2019-02-21T17:34:24.679Z,4.90
2019-02-21T17:39:26.595Z,5.83
2019-02-21T17:44:31.906Z,5.72
2019-02-21T17:47:03.205Z,20.37
2019-02-21T17:49:34.738Z,5.95
2019-02-21T17:52:07.011Z,6.28
2019-02-21T17:54:38.661Z,6.35
2019-02-21T17:57:10.373Z,6.58
2019-02-21T18:02:12.302Z,6.45
2019-02-21T18:04:43.654Z,8.68
2019-02-21T18:07:15.294Z,10.25
2019-02-21T18:09:46.748Z,10.28
2019-02-21T18:12:18.300Z,11.57
2019-02-21T18:14:49.550Z,11.12
2019-02-21T18:17:21.001Z,9.68
2019-02-21T18:19:53.109Z,13.43
2019-02-21T18:24:55.052Z,12.20
2019-02-21T18:27:26.493Z,14.07
2019-02-21T18:29:57.836Z,12.13
2019-02-21T18:32:29.392Z,11.43
2019-02-21T18:37:32.601Z,11.03
2019-02-21T18:40:16.983Z,11.22
2019-02-21T18:42:39.694Z,11.50
2019-02-21T18:45:11.361Z,12.00
2019-02-21T18:47:43.149Z,11.00
2019-02-21T18:50:16.371Z,12.00
2019-02-21T18:52:48.008Z,12.20
2019-02-21T18:55:19.617Z,10.82
2019-02-21T19:00:24.461Z,11.60
2019-02-21T19:02:55.964Z,13.55
2019-02-21T19:08:05.193Z,9.43
2019-02-21T19:10:32.714Z,9.98
2019-02-21T19:13:04.677Z,11.22
2019-02-21T19:15:36.033Z,10.13
2019-02-21T19:20:37.963Z,9.73
2019-02-21T19:23:09.863Z,11.28
2019-02-21T19:25:41.520Z,10.95
2019-02-21T19:30:47.089Z,8.63
2019-02-21T19:33:18.426Z,8.93
2019-02-21T19:35:49.880Z,9.05
2019-02-21T19:38:21.441Z,9.13
2019-02-21T19:40:52.887Z,8.55
2019-02-21T19:43:25.259Z,8.43
2019-02-21T19:45:57.428Z,9.15
2019-02-21T19:48:29.075Z,9.03
2019-02-21T19:51:00.725Z,8.68
2019-02-21T19:56:02.851Z,9.73
2019-02-21T19:58:35.323Z,10.05
2019-02-21T20:01:08.081Z,10.08
2019-02-21T20:03:39.724Z,10.03
2019-02-21T20:06:11.580Z,8.78
2019-02-21T20:08:44.119Z,7.22
2019-02-21T20:11:16.836Z,7.28
2019-02-21T20:13:48.447Z,7.95
2019-02-21T20:16:20.350Z,7.60
2019-02-21T20:18:51.809Z,7.60
2019-02-21T20:21:24.087Z,7.65
2019-02-21T20:23:56.138Z,6.50
2019-02-21T20:26:27.451Z,7.08
2019-02-21T20:28:59.151Z,5.85
2019-02-21T20:31:30.486Z,7.03
2019-02-21T20:34:02.140Z,5.50
2019-02-21T20:39:05.046Z,5.28
2019-02-21T20:41:37.823Z,5.30
2019-02-21T20:44:10.629Z,4.42
2019-02-21T20:46:41.956Z,4.90
2019-02-21T20:49:13.605Z,5.05
2019-02-21T20:54:15.954Z,5.10
2019-02-21T20:56:47.959Z,5.10
2019-02-21T20:59:20.964Z,4.85
2019-02-21T21:01:53.254Z,5.62
2019-02-21T21:04:24.674Z,4.58
2019-02-21T21:06:56.076Z,5.55
2019-02-21T21:09:27.873Z,4.28
2019-02-21T21:11:59.627Z,3.72
2019-02-21T21:14:31.796Z,3.80
2019-02-21T21:17:03.153Z,3.70
2019-02-21T21:19:36.520Z,4.00
2019-02-21T21:22:07.983Z,3.70
2019-02-21T21:27:09.657Z,3.25
2019-02-21T21:29:41.108Z,4.40
2019-02-21T21:32:12.557Z,3.50
2019-02-21T21:34:44.084Z,3.25
2019-02-21T21:37:15.561Z,3.60
2019-02-21T21:39:47.220Z,3.40
2019-02-21T21:42:18.665Z,3.30
2019-02-21T21:44:50.437Z,2.60
2019-02-21T21:47:21.870Z,3.45
2019-02-21T21:49:53.338Z,3.10
2019-02-21T21:52:24.888Z,3.40
2019-02-21T21:54:56.223Z,6.30
2019-02-21T21:57:27.882Z,5.60
2019-02-21T21:59:59.534Z,3.83
2019-02-21T22:02:31.289Z,4.50
2019-02-21T22:05:02.744Z,2.70
2019-02-21T22:07:34.396Z,2.98
2019-02-21T22:10:10.864Z,3.33
2019-02-21T22:12:42.424Z,4.62
2019-02-21T22:15:19.904Z,4.58
2019-02-21T22:17:51.364Z,4.25
2019-02-21T22:20:23.015Z,5.05
2019-02-21T22:22:54.461Z,7.40
2019-02-21T22:25:26.015Z,8.30
2019-02-21T22:30:27.693Z,7.17
2019-02-21T22:32:59.345Z,7.75
2019-02-21T22:38:01.423Z,7.05
2019-02-21T22:40:33.495Z,6.33
2019-02-21T22:43:08.525Z,7.05
2019-02-21T22:45:40.188Z,6.95
2019-02-21T22:50:41.866Z,6.10
2019-02-21T22:53:13.503Z,6.50
2019-02-21T22:55:44.754Z,6.87
2019-02-21T22:58:16.312Z,8.88
2019-02-21T23:03:27.711Z,7.12
2019-02-21T23:06:25.879Z,6.62
2019-02-21T23:08:57.528Z,6.12
2019-02-21T23:11:29.189Z,6.25
2019-02-21T23:16:30.863Z,6.35
2019-02-21T23:19:02.312Z,5.62
2019-02-21T23:24:03.853Z,5.30
2019-02-21T23:26:35.429Z,5.47
2019-02-21T23:29:06.880Z,5.53
2019-02-21T23:31:38.232Z,5.42
2019-02-21T23:34:11.322Z,3.92
2019-02-21T23:36:42.874Z,5.80
2019-02-21T23:41:44.540Z,3.95
2019-02-21T23:44:16.206Z,3.10
2019-02-21T23:49:17.865Z,3.72
2019-02-21T23:51:49.328Z,3.95
2019-02-21T23:54:21.385Z,4.42
2019-02-21T23:56:53.037Z,4.15
2019-02-21T23:59:24.800Z,4.25
